sensor_id;sensor_type;location;lat;lon;timestamp;P1;durP1;ratioP1;P2;durP2;ratioP2
3779;SDS011;1905;52.482;9.802;2024-02-28T00:01:50;15.80;;;7.30;;
3779;SDS011;1905;52.482;9.802;2024-02-28T00:04:18;13.47;;;7.00;;
3779;SDS011;1905;52.482;9.802;2024-02-28T00:06:48;13.40;;;6.03;;
3779;SDS011;1905;52.482;9.802;2024-02-28T00:09:17;11.60;;;5.57;;
3779;SDS011;1905;52.482;9.802;2024-02-28T00:11:46;14.60;;;6.80;;
3779;SDS011;1905;52.482;9.802;2024-02-28T00:14:15;14.63;;;7.13;;
3779;SDS011;1905;52.482;9.802;2024-02-28T00:16:44;14.50;;;6.20;;
3779;SDS011;1905;52.482;9.802;2024-02-28T00:19:13;14.10;;;7.50;;
3779;SDS011;1905;52.482;9.802;2024-02-28T00:21:41;12.63;;;5.43;;
3779;SDS011;1905;52.482;9.802;2024-02-28T00:24:11;12.73;;;5.33;;
3779;SDS011;1905;52.482;9.802;2024-02-28T00:26:40;12.87;;;5.33;;
3779;SDS011;1905;52.482;9.802;2024-02-28T00:29:10;12.20;;;5.90;;
3779;SDS011;1905;52.482;9.802;2024-02-28T00:31:38;12.63;;;5.87;;
3779;SDS011;1905;52.482;9.802;2024-02-28T00:34:07;13.37;;;5.70;;
3779;SDS011;1905;52.482;9.802;2024-02-28T00:36:35;14.67;;;5.90;;
3779;SDS011;1905;52.482;9.802;2024-02-28T00:39:22;14.07;;;6.00;;
3779;SDS011;1905;52.482;9.802;2024-02-28T00:41:51;13.37;;;5.90;;
3779;SDS011;1905;52.482;9.802;2024-02-28T00:44:19;13.43;;;6.47;;
3779;SDS011;1905;52.482;9.802;2024-02-28T00:46:47;13.57;;;6.47;;
3779;SDS011;1905;52.482;9.802;2024-02-28T00:49:16;17.23;;;7.30;;
3779;SDS011;1905;52.482;9.802;2024-02-28T00:51:43;11.70;;;4.93;;
3779;SDS011;1905;52.482;9.802;2024-02-28T00:54:14;11.27;;;5.57;;
3779;SDS011;1905;52.482;9.802;2024-02-28T00:56:43;13.57;;;6.10;;
3779;SDS011;1905;52.482;9.802;2024-02-28T00:59:11;15.53;;;6.63;;
3779;SDS011;1905;52.482;9.802;2024-02-28T01:01:39;16.13;;;7.17;;
3779;SDS011;1905;52.482;9.802;2024-02-28T01:04:08;13.77;;;6.73;;
3779;SDS011;1905;52.482;9.802;2024-02-28T01:06:37;11.30;;;5.73;;
3779;SDS011;1905;52.482;9.802;2024-02-28T01:09:05;12.00;;;5.83;;
3779;SDS011;1905;52.482;9.802;2024-02-28T01:11:34;13.57;;;6.60;;
3779;SDS011;1905;52.482;9.802;2024-02-28T01:14:04;11.70;;;5.40;;
3779;SDS011;1905;52.482;9.802;2024-02-28T01:16:33;14.03;;;6.93;;
3779;SDS011;1905;52.482;9.802;2024-02-28T01:19:01;13.80;;;6.43;;
3779;SDS011;1905;52.482;9.802;2024-02-28T01:21:30;12.80;;;5.90;;
3779;SDS011;1905;52.482;9.802;2024-02-28T01:23:58;16.80;;;6.93;;
3779;SDS011;1905;52.482;9.802;2024-02-28T01:26:26;15.00;;;7.00;;
3779;SDS011;1905;52.482;9.802;2024-02-28T01:28:54;12.73;;;6.17;;
3779;SDS011;1905;52.482;9.802;2024-02-28T01:31:24;12.53;;;6.30;;
3779;SDS011;1905;52.482;9.802;2024-02-28T01:33:53;12.20;;;6.33;;
3779;SDS011;1905;52.482;9.802;2024-02-28T01:36:22;15.40;;;5.87;;
3779;SDS011;1905;52.482;9.802;2024-02-28T01:38:50;11.90;;;5.63;;
3779;SDS011;1905;52.482;9.802;2024-02-28T01:41:18;13.30;;;4.90;;
3779;SDS011;1905;52.482;9.802;2024-02-28T01:43:47;13.07;;;6.07;;
3779;SDS011;1905;52.482;9.802;2024-02-28T01:46:20;15.17;;;6.17;;
3779;SDS011;1905;52.482;9.802;2024-02-28T01:48:51;14.50;;;7.33;;
3779;SDS011;1905;52.482;9.802;2024-02-28T01:51:20;13.00;;;5.97;;
3779;SDS011;1905;52.482;9.802;2024-02-28T01:53:49;12.10;;;6.00;;
3779;SDS011;1905;52.482;9.802;2024-02-28T01:56:20;14.00;;;6.33;;
3779;SDS011;1905;52.482;9.802;2024-02-28T01:58:50;13.73;;;6.37;;
3779;SDS011;1905;52.482;9.802;2024-02-28T02:01:20;13.73;;;6.60;;
3779;SDS011;1905;52.482;9.802;2024-02-28T02:03:52;15.07;;;6.47;;
3779;SDS011;1905;52.482;9.802;2024-02-28T02:06:21;14.10;;;6.43;;
3779;SDS011;1905;52.482;9.802;2024-02-28T02:08:50;13.53;;;5.30;;
3779;SDS011;1905;52.482;9.802;2024-02-28T02:11:18;13.53;;;7.47;;
3779;SDS011;1905;52.482;9.802;2024-02-28T02:13:49;14.90;;;6.77;;
3779;SDS011;1905;52.482;9.802;2024-02-28T02:16:18;17.47;;;7.10;;
3779;SDS011;1905;52.482;9.802;2024-02-28T02:18:48;13.90;;;6.70;;
3779;SDS011;1905;52.482;9.802;2024-02-28T02:21:19;12.43;;;5.73;;
3779;SDS011;1905;52.482;9.802;2024-02-28T02:23:51;16.60;;;7.50;;
3779;SDS011;1905;52.482;9.802;2024-02-28T02:26:19;11.77;;;5.63;;
3779;SDS011;1905;52.482;9.802;2024-02-28T02:28:47;13.57;;;5.33;;
3779;SDS011;1905;52.482;9.802;2024-02-28T02:31:15;16.60;;;6.83;;
3779;SDS011;1905;52.482;9.802;2024-02-28T02:33:43;16.83;;;6.50;;
3779;SDS011;1905;52.482;9.802;2024-02-28T02:36:11;15.43;;;6.50;;
3779;SDS011;1905;52.482;9.802;2024-02-28T02:38:40;13.13;;;5.77;;
3779;SDS011;1905;52.482;9.802;2024-02-28T02:41:09;14.03;;;5.53;;
3779;SDS011;1905;52.482;9.802;2024-02-28T02:43:38;16.10;;;5.53;;
3779;SDS011;1905;52.482;9.802;2024-02-28T02:46:06;13.60;;;6.20;;
3779;SDS011;1905;52.482;9.802;2024-02-28T02:48:34;18.93;;;6.37;;
3779;SDS011;1905;52.482;9.802;2024-02-28T02:51:03;12.23;;;5.80;;
3779;SDS011;1905;52.482;9.802;2024-02-28T02:53:31;16.87;;;6.60;;
3779;SDS011;1905;52.482;9.802;2024-02-28T02:55:59;16.80;;;7.70;;
3779;SDS011;1905;52.482;9.802;2024-02-28T02:58:28;13.80;;;5.90;;
3779;SDS011;1905;52.482;9.802;2024-02-28T03:00:57;12.83;;;6.10;;
3779;SDS011;1905;52.482;9.802;2024-02-28T03:03:25;14.67;;;6.87;;
3779;SDS011;1905;52.482;9.802;2024-02-28T03:05:54;15.20;;;6.50;;
3779;SDS011;1905;52.482;9.802;2024-02-28T03:08:22;16.70;;;6.77;;
3779;SDS011;1905;52.482;9.802;2024-02-28T03:10:51;14.13;;;6.07;;
3779;SDS011;1905;52.482;9.802;2024-02-28T03:13:19;11.83;;;5.80;;
3779;SDS011;1905;52.482;9.802;2024-02-28T03:15:49;16.10;;;6.30;;
3779;SDS011;1905;52.482;9.802;2024-02-28T03:18:17;12.07;;;5.60;;
3779;SDS011;1905;52.482;9.802;2024-02-28T03:20:46;11.50;;;5.13;;
3779;SDS011;1905;52.482;9.802;2024-02-28T03:23:14;16.43;;;6.30;;
3779;SDS011;1905;52.482;9.802;2024-02-28T03:25:42;15.67;;;6.50;;
3779;SDS011;1905;52.482;9.802;2024-02-28T03:28:11;16.80;;;6.63;;
3779;SDS011;1905;52.482;9.802;2024-02-28T03:30:39;12.90;;;5.90;;
3779;SDS011;1905;52.482;9.802;2024-02-28T03:33:09;19.30;;;5.90;;
3779;SDS011;1905;52.482;9.802;2024-02-28T03:35:38;14.83;;;5.93;;
3779;SDS011;1905;52.482;9.802;2024-02-28T03:38:06;13.80;;;5.97;;
3779;SDS011;1905;52.482;9.802;2024-02-28T03:40:34;16.37;;;6.27;;
3779;SDS011;1905;52.482;9.802;2024-02-28T03:43:02;15.60;;;7.00;;
3779;SDS011;1905;52.482;9.802;2024-02-28T03:45:36;18.40;;;6.80;;
3779;SDS011;1905;52.482;9.802;2024-02-28T03:48:05;12.70;;;5.00;;
3779;SDS011;1905;52.482;9.802;2024-02-28T03:50:35;15.73;;;6.33;;
3779;SDS011;1905;52.482;9.802;2024-02-28T03:53:04;16.73;;;6.17;;
3779;SDS011;1905;52.482;9.802;2024-02-28T03:55:32;16.57;;;7.27;;
3779;SDS011;1905;52.482;9.802;2024-02-28T03:58:01;14.40;;;6.90;;
3779;SDS011;1905;52.482;9.802;2024-02-28T04:00:30;14.87;;;5.77;;
3779;SDS011;1905;52.482;9.802;2024-02-28T04:02:58;13.73;;;6.10;;
3779;SDS011;1905;52.482;9.802;2024-02-28T04:05:27;14.30;;;5.60;;
3779;SDS011;1905;52.482;9.802;2024-02-28T04:07:56;15.80;;;5.73;;
3779;SDS011;1905;52.482;9.802;2024-02-28T04:10:24;14.30;;;5.63;;
3779;SDS011;1905;52.482;9.802;2024-02-28T04:12:53;14.17;;;6.20;;
3779;SDS011;1905;52.482;9.802;2024-02-28T04:15:21;14.93;;;5.77;;
3779;SDS011;1905;52.482;9.802;2024-02-28T04:17:52;12.53;;;5.33;;
3779;SDS011;1905;52.482;9.802;2024-02-28T04:20:20;15.27;;;6.27;;
3779;SDS011;1905;52.482;9.802;2024-02-28T04:22:49;15.50;;;5.53;;
3779;SDS011;1905;52.482;9.802;2024-02-28T04:25:19;12.77;;;6.00;;
3779;SDS011;1905;52.482;9.802;2024-02-28T04:27:47;15.90;;;6.43;;
3779;SDS011;1905;52.482;9.802;2024-02-28T04:30:16;14.93;;;6.33;;
3779;SDS011;1905;52.482;9.802;2024-02-28T04:32:44;12.27;;;6.10;;
3779;SDS011;1905;52.482;9.802;2024-02-28T04:35:13;15.10;;;7.10;;
3779;SDS011;1905;52.482;9.802;2024-02-28T04:37:42;13.50;;;6.20;;
3779;SDS011;1905;52.482;9.802;2024-02-28T04:40:11;14.00;;;6.27;;
3779;SDS011;1905;52.482;9.802;2024-02-28T04:42:40;15.60;;;7.13;;
3779;SDS011;1905;52.482;9.802;2024-02-28T04:45:09;17.00;;;7.73;;
3779;SDS011;1905;52.482;9.802;2024-02-28T04:47:38;16.20;;;6.53;;
3779;SDS011;1905;52.482;9.802;2024-02-28T04:50:10;16.30;;;6.47;;
3779;SDS011;1905;52.482;9.802;2024-02-28T04:52:39;16.17;;;7.50;;
3779;SDS011;1905;52.482;9.802;2024-02-28T04:55:07;14.13;;;6.87;;
3779;SDS011;1905;52.482;9.802;2024-02-28T04:57:35;11.80;;;6.20;;
3779;SDS011;1905;52.482;9.802;2024-02-28T05:00:06;13.83;;;6.00;;
3779;SDS011;1905;52.482;9.802;2024-02-28T05:02:35;18.10;;;7.20;;
3779;SDS011;1905;52.482;9.802;2024-02-28T05:05:04;18.00;;;5.90;;
3779;SDS011;1905;52.482;9.802;2024-02-28T05:07:33;14.17;;;6.70;;
3779;SDS011;1905;52.482;9.802;2024-02-28T05:10:01;12.93;;;6.30;;
3779;SDS011;1905;52.482;9.802;2024-02-28T05:12:30;16.43;;;7.27;;
3779;SDS011;1905;52.482;9.802;2024-02-28T05:14:58;17.93;;;7.23;;
3779;SDS011;1905;52.482;9.802;2024-02-28T05:17:28;13.13;;;6.30;;
3779;SDS011;1905;52.482;9.802;2024-02-28T05:19:57;15.63;;;7.40;;
3779;SDS011;1905;52.482;9.802;2024-02-28T05:22:25;16.97;;;7.80;;
3779;SDS011;1905;52.482;9.802;2024-02-28T05:24:54;20.60;;;8.80;;
3779;SDS011;1905;52.482;9.802;2024-02-28T05:27:22;25.43;;;8.23;;
3779;SDS011;1905;52.482;9.802;2024-02-28T05:29:50;18.90;;;9.27;;
3779;SDS011;1905;52.482;9.802;2024-02-28T05:32:19;18.43;;;8.40;;
3779;SDS011;1905;52.482;9.802;2024-02-28T05:34:49;19.30;;;8.27;;
3779;SDS011;1905;52.482;9.802;2024-02-28T05:37:17;24.10;;;9.80;;
3779;SDS011;1905;52.482;9.802;2024-02-28T05:39:45;22.77;;;9.17;;
3779;SDS011;1905;52.482;9.802;2024-02-28T05:42:14;19.63;;;9.10;;
3779;SDS011;1905;52.482;9.802;2024-02-28T05:44:48;21.27;;;9.43;;
3779;SDS011;1905;52.482;9.802;2024-02-28T05:47:16;18.03;;;8.67;;
3779;SDS011;1905;52.482;9.802;2024-02-28T05:49:50;21.63;;;9.90;;
3779;SDS011;1905;52.482;9.802;2024-02-28T05:52:18;23.47;;;10.27;;
3779;SDS011;1905;52.482;9.802;2024-02-28T05:54:46;24.80;;;10.07;;
3779;SDS011;1905;52.482;9.802;2024-02-28T05:57:15;21.90;;;10.03;;
3779;SDS011;1905;52.482;9.802;2024-02-28T05:59:43;23.23;;;9.80;;
3779;SDS011;1905;52.482;9.802;2024-02-28T06:02:11;24.50;;;9.17;;
3779;SDS011;1905;52.482;9.802;2024-02-28T06:04:40;17.73;;;9.13;;
3779;SDS011;1905;52.482;9.802;2024-02-28T06:07:09;19.37;;;9.47;;
3779;SDS011;1905;52.482;9.802;2024-02-28T06:09:38;19.40;;;9.50;;
3779;SDS011;1905;52.482;9.802;2024-02-28T06:12:06;20.57;;;10.40;;
3779;SDS011;1905;52.482;9.802;2024-02-28T06:14:34;23.03;;;11.20;;
3779;SDS011;1905;52.482;9.802;2024-02-28T06:17:03;24.20;;;9.80;;
3779;SDS011;1905;52.482;9.802;2024-02-28T06:19:31;19.97;;;10.70;;
3779;SDS011;1905;52.482;9.802;2024-02-28T06:21:59;28.00;;;12.00;;
3779;SDS011;1905;52.482;9.802;2024-02-28T06:24:29;23.60;;;10.00;;
3779;SDS011;1905;52.482;9.802;2024-02-28T06:26:58;24.67;;;9.53;;
3779;SDS011;1905;52.482;9.802;2024-02-28T06:29:26;32.37;;;12.23;;
3779;SDS011;1905;52.482;9.802;2024-02-28T06:31:54;27.03;;;10.37;;
3779;SDS011;1905;52.482;9.802;2024-02-28T06:34:23;25.50;;;10.37;;
3779;SDS011;1905;52.482;9.802;2024-02-28T06:36:51;29.00;;;13.00;;
3779;SDS011;1905;52.482;9.802;2024-02-28T06:39:20;30.13;;;12.90;;
3779;SDS011;1905;52.482;9.802;2024-02-28T06:41:50;22.33;;;10.77;;
3779;SDS011;1905;52.482;9.802;2024-02-28T06:44:18;27.50;;;12.20;;
3779;SDS011;1905;52.482;9.802;2024-02-28T06:46:47;27.47;;;10.70;;
3779;SDS011;1905;52.482;9.802;2024-02-28T06:49:15;28.30;;;10.40;;
3779;SDS011;1905;52.482;9.802;2024-02-28T06:51:44;32.10;;;13.50;;
3779;SDS011;1905;52.482;9.802;2024-02-28T06:54:13;23.07;;;10.63;;
3779;SDS011;1905;52.482;9.802;2024-02-28T06:56:41;28.43;;;14.63;;
3779;SDS011;1905;52.482;9.802;2024-02-28T06:59:11;28.63;;;14.13;;
3779;SDS011;1905;52.482;9.802;2024-02-28T07:01:39;28.73;;;13.03;;
3779;SDS011;1905;52.482;9.802;2024-02-28T07:04:07;32.00;;;12.47;;
3779;SDS011;1905;52.482;9.802;2024-02-28T07:06:36;28.23;;;13.70;;
3779;SDS011;1905;52.482;9.802;2024-02-28T07:09:04;24.97;;;12.97;;
3779;SDS011;1905;52.482;9.802;2024-02-28T07:11:35;27.50;;;12.37;;
3779;SDS011;1905;52.482;9.802;2024-02-28T07:14:05;29.00;;;12.10;;
3779;SDS011;1905;52.482;9.802;2024-02-28T07:16:35;27.47;;;13.37;;
3779;SDS011;1905;52.482;9.802;2024-02-28T07:19:04;28.83;;;11.60;;
3779;SDS011;1905;52.482;9.802;2024-02-28T07:21:32;26.23;;;12.37;;
3779;SDS011;1905;52.482;9.802;2024-02-28T07:24:01;32.23;;;14.13;;
3779;SDS011;1905;52.482;9.802;2024-02-28T07:26:29;27.20;;;12.87;;
3779;SDS011;1905;52.482;9.802;2024-02-28T07:28:57;28.43;;;12.83;;
3779;SDS011;1905;52.482;9.802;2024-02-28T07:31:26;31.33;;;12.93;;
3779;SDS011;1905;52.482;9.802;2024-02-28T07:33:56;27.83;;;13.33;;
3779;SDS011;1905;52.482;9.802;2024-02-28T07:36:24;28.17;;;13.30;;
3779;SDS011;1905;52.482;9.802;2024-02-28T07:38:53;34.70;;;15.37;;
3779;SDS011;1905;52.482;9.802;2024-02-28T07:41:21;26.93;;;12.13;;
3779;SDS011;1905;52.482;9.802;2024-02-28T07:43:49;37.00;;;13.07;;
3779;SDS011;1905;52.482;9.802;2024-02-28T07:46:18;33.57;;;14.93;;
3779;SDS011;1905;52.482;9.802;2024-02-28T07:48:46;33.03;;;14.20;;
3779;SDS011;1905;52.482;9.802;2024-02-28T07:51:17;39.67;;;13.60;;
3779;SDS011;1905;52.482;9.802;2024-02-28T07:53:45;30.67;;;13.07;;
3779;SDS011;1905;52.482;9.802;2024-02-28T07:56:17;31.87;;;14.47;;
3779;SDS011;1905;52.482;9.802;2024-02-28T07:58:46;30.80;;;13.67;;
3779;SDS011;1905;52.482;9.802;2024-02-28T08:01:14;34.13;;;16.63;;
3779;SDS011;1905;52.482;9.802;2024-02-28T08:03:44;36.43;;;15.30;;
3779;SDS011;1905;52.482;9.802;2024-02-28T08:06:12;29.93;;;13.43;;
3779;SDS011;1905;52.482;9.802;2024-02-28T08:08:43;32.87;;;14.63;;
3779;SDS011;1905;52.482;9.802;2024-02-28T08:11:13;37.37;;;16.67;;
3779;SDS011;1905;52.482;9.802;2024-02-28T08:13:41;26.33;;;13.23;;
3779;SDS011;1905;52.482;9.802;2024-02-28T08:16:10;31.83;;;14.90;;
3779;SDS011;1905;52.482;9.802;2024-02-28T08:18:39;36.00;;;15.13;;
3779;SDS011;1905;52.482;9.802;2024-02-28T08:21:08;31.80;;;13.00;;
3779;SDS011;1905;52.482;9.802;2024-02-28T08:23:37;36.40;;;14.40;;
3779;SDS011;1905;52.482;9.802;2024-02-28T08:26:07;36.17;;;14.80;;
3779;SDS011;1905;52.482;9.802;2024-02-28T08:28:35;41.00;;;16.70;;
3779;SDS011;1905;52.482;9.802;2024-02-28T08:31:03;36.70;;;15.13;;
3779;SDS011;1905;52.482;9.802;2024-02-28T08:33:32;31.27;;;15.07;;
3779;SDS011;1905;52.482;9.802;2024-02-28T08:36:00;31.50;;;14.53;;
3779;SDS011;1905;52.482;9.802;2024-02-28T08:38:31;32.67;;;15.00;;
3779;SDS011;1905;52.482;9.802;2024-02-28T08:41:01;32.17;;;15.17;;
3779;SDS011;1905;52.482;9.802;2024-02-28T08:43:31;38.17;;;17.37;;
3779;SDS011;1905;52.482;9.802;2024-02-28T08:45:59;31.43;;;15.87;;
3779;SDS011;1905;52.482;9.802;2024-02-28T08:48:28;36.87;;;15.97;;
3779;SDS011;1905;52.482;9.802;2024-02-28T08:50:56;42.30;;;16.77;;
3779;SDS011;1905;52.482;9.802;2024-02-28T08:53:24;34.43;;;16.53;;
3779;SDS011;1905;52.482;9.802;2024-02-28T08:55:53;38.20;;;17.70;;
3779;SDS011;1905;52.482;9.802;2024-02-28T08:58:21;37.23;;;17.50;;
3779;SDS011;1905;52.482;9.802;2024-02-28T09:00:52;30.37;;;15.63;;
3779;SDS011;1905;52.482;9.802;2024-02-28T09:03:20;35.17;;;17.17;;
3779;SDS011;1905;52.482;9.802;2024-02-28T09:05:49;36.70;;;16.10;;
3779;SDS011;1905;52.482;9.802;2024-02-28T09:08:18;42.80;;;17.33;;
3779;SDS011;1905;52.482;9.802;2024-02-28T09:10:46;35.23;;;16.37;;
3779;SDS011;1905;52.482;9.802;2024-02-28T09:13:14;40.53;;;16.30;;
3779;SDS011;1905;52.482;9.802;2024-02-28T09:15:44;38.07;;;16.20;;
3779;SDS011;1905;52.482;9.802;2024-02-28T09:18:14;34.63;;;16.77;;
3779;SDS011;1905;52.482;9.802;2024-02-28T09:20:44;33.93;;;15.13;;
3779;SDS011;1905;52.482;9.802;2024-02-28T09:23:12;35.73;;;15.77;;
3779;SDS011;1905;52.482;9.802;2024-02-28T09:25:41;35.60;;;16.37;;
3779;SDS011;1905;52.482;9.802;2024-02-28T09:28:09;40.40;;;16.90;;
3779;SDS011;1905;52.482;9.802;2024-02-28T09:30:40;32.10;;;16.17;;
3779;SDS011;1905;52.482;9.802;2024-02-28T09:33:20;41.23;;;19.27;;
3779;SDS011;1905;52.482;9.802;2024-02-28T09:35:48;42.00;;;17.20;;
3779;SDS011;1905;52.482;9.802;2024-02-28T09:38:16;35.40;;;17.63;;
3779;SDS011;1905;52.482;9.802;2024-02-28T09:40:47;37.57;;;18.57;;
3779;SDS011;1905;52.482;9.802;2024-02-28T09:43:18;38.93;;;17.77;;
3779;SDS011;1905;52.482;9.802;2024-02-28T09:45:52;44.57;;;17.90;;
3779;SDS011;1905;52.482;9.802;2024-02-28T09:48:27;43.40;;;17.93;;
3779;SDS011;1905;52.482;9.802;2024-02-28T09:50:56;37.67;;;17.10;;
3779;SDS011;1905;52.482;9.802;2024-02-28T09:53:25;37.50;;;16.60;;
3779;SDS011;1905;52.482;9.802;2024-02-28T09:55:54;36.43;;;18.00;;
3779;SDS011;1905;52.482;9.802;2024-02-28T09:58:22;43.97;;;16.53;;
3779;SDS011;1905;52.482;9.802;2024-02-28T10:00:51;40.83;;;16.33;;
3779;SDS011;1905;52.482;9.802;2024-02-28T10:03:27;41.13;;;16.80;;
3779;SDS011;1905;52.482;9.802;2024-02-28T10:05:58;40.17;;;18.10;;
3779;SDS011;1905;52.482;9.802;2024-02-28T10:08:31;33.73;;;15.50;;
3779;SDS011;1905;52.482;9.802;2024-02-28T10:11:01;40.07;;;17.90;;
3779;SDS011;1905;52.482;9.802;2024-02-28T10:13:30;39.50;;;17.03;;
3779;SDS011;1905;52.482;9.802;2024-02-28T10:15:58;42.30;;;17.50;;
3779;SDS011;1905;52.482;9.802;2024-02-28T10:18:28;42.77;;;16.90;;
3779;SDS011;1905;52.482;9.802;2024-02-28T10:20:56;44.50;;;19.53;;
3779;SDS011;1905;52.482;9.802;2024-02-28T10:23:24;42.10;;;18.60;;
3779;SDS011;1905;52.482;9.802;2024-02-28T10:25:54;42.70;;;18.80;;
3779;SDS011;1905;52.482;9.802;2024-02-28T10:28:24;42.70;;;16.30;;
3779;SDS011;1905;52.482;9.802;2024-02-28T10:30:52;41.27;;;18.30;;
3779;SDS011;1905;52.482;9.802;2024-02-28T10:33:22;43.70;;;17.87;;
3779;SDS011;1905;52.482;9.802;2024-02-28T10:35:58;40.57;;;19.30;;
3779;SDS011;1905;52.482;9.802;2024-02-28T10:38:27;46.73;;;19.80;;
3779;SDS011;1905;52.482;9.802;2024-02-28T10:40:57;37.90;;;18.03;;
3779;SDS011;1905;52.482;9.802;2024-02-28T10:43:27;40.83;;;18.33;;
3779;SDS011;1905;52.482;9.802;2024-02-28T10:45:57;36.77;;;17.80;;
3779;SDS011;1905;52.482;9.802;2024-02-28T10:48:45;34.63;;;15.57;;
3779;SDS011;1905;52.482;9.802;2024-02-28T10:51:16;45.40;;;17.60;;
3779;SDS011;1905;52.482;9.802;2024-02-28T10:53:53;34.20;;;18.00;;
3779;SDS011;1905;52.482;9.802;2024-02-28T10:56:30;42.23;;;19.63;;
3779;SDS011;1905;52.482;9.802;2024-02-28T10:58:59;39.50;;;17.47;;
3779;SDS011;1905;52.482;9.802;2024-02-28T11:01:29;40.37;;;18.90;;
3779;SDS011;1905;52.482;9.802;2024-02-28T11:03:57;39.30;;;18.30;;
3779;SDS011;1905;52.482;9.802;2024-02-28T11:06:27;45.40;;;18.30;;
3779;SDS011;1905;52.482;9.802;2024-02-28T11:08:58;50.53;;;20.83;;
3779;SDS011;1905;52.482;9.802;2024-02-28T11:11:30;41.03;;;21.30;;
3779;SDS011;1905;52.482;9.802;2024-02-28T11:14:00;44.13;;;17.43;;
3779;SDS011;1905;52.482;9.802;2024-02-28T11:16:30;43.37;;;17.73;;
3779;SDS011;1905;52.482;9.802;2024-02-28T11:19:00;36.50;;;16.67;;
3779;SDS011;1905;52.482;9.802;2024-02-28T11:21:34;42.97;;;18.00;;
3779;SDS011;1905;52.482;9.802;2024-02-28T11:24:03;46.00;;;20.80;;
3779;SDS011;1905;52.482;9.802;2024-02-28T11:26:33;44.03;;;18.90;;
3779;SDS011;1905;52.482;9.802;2024-02-28T11:29:01;40.43;;;18.83;;
3779;SDS011;1905;52.482;9.802;2024-02-28T11:31:30;36.13;;;17.90;;
3779;SDS011;1905;52.482;9.802;2024-02-28T11:33:58;35.63;;;17.97;;
3779;SDS011;1905;52.482;9.802;2024-02-28T11:36:27;43.90;;;17.60;;
3779;SDS011;1905;52.482;9.802;2024-02-28T11:38:57;41.97;;;17.80;;
3779;SDS011;1905;52.482;9.802;2024-02-28T11:41:27;39.37;;;17.90;;
3779;SDS011;1905;52.482;9.802;2024-02-28T11:43:55;42.60;;;19.67;;
3779;SDS011;1905;52.482;9.802;2024-02-28T11:46:24;45.43;;;19.93;;
3779;SDS011;1905;52.482;9.802;2024-02-28T11:48:55;43.13;;;19.07;;
3779;SDS011;1905;52.482;9.802;2024-02-28T11:51:23;44.07;;;19.37;;
3779;SDS011;1905;52.482;9.802;2024-02-28T11:53:52;43.40;;;17.90;;
3779;SDS011;1905;52.482;9.802;2024-02-28T11:56:22;42.47;;;18.43;;
3779;SDS011;1905;52.482;9.802;2024-02-28T11:58:50;39.60;;;17.90;;
3779;SDS011;1905;52.482;9.802;2024-02-28T12:01:19;37.10;;;16.00;;
3779;SDS011;1905;52.482;9.802;2024-02-28T12:03:47;43.87;;;18.53;;
3779;SDS011;1905;52.482;9.802;2024-02-28T12:06:16;44.77;;;19.43;;
3779;SDS011;1905;52.482;9.802;2024-02-28T12:08:44;46.50;;;19.23;;
3779;SDS011;1905;52.482;9.802;2024-02-28T12:11:13;45.60;;;19.87;;
3779;SDS011;1905;52.482;9.802;2024-02-28T12:13:43;41.93;;;18.90;;
3779;SDS011;1905;52.482;9.802;2024-02-28T12:16:14;40.20;;;18.50;;
3779;SDS011;1905;52.482;9.802;2024-02-28T12:18:43;41.30;;;17.70;;
3779;SDS011;1905;52.482;9.802;2024-02-28T12:21:11;46.03;;;18.63;;
3779;SDS011;1905;52.482;9.802;2024-02-28T12:23:40;36.50;;;16.57;;
3779;SDS011;1905;52.482;9.802;2024-02-28T12:26:09;37.40;;;16.80;;
3779;SDS011;1905;52.482;9.802;2024-02-28T12:28:38;45.73;;;16.93;;
3779;SDS011;1905;52.482;9.802;2024-02-28T12:31:08;51.27;;;19.70;;
3779;SDS011;1905;52.482;9.802;2024-02-28T12:33:38;41.73;;;15.93;;
3779;SDS011;1905;52.482;9.802;2024-02-28T12:36:09;33.57;;;15.33;;
3779;SDS011;1905;52.482;9.802;2024-02-28T12:38:38;36.80;;;16.40;;
3779;SDS011;1905;52.482;9.802;2024-02-28T12:41:08;42.07;;;16.33;;
3779;SDS011;1905;52.482;9.802;2024-02-28T12:43:36;37.67;;;14.07;;
3779;SDS011;1905;52.482;9.802;2024-02-28T12:46:09;40.17;;;17.27;;
3779;SDS011;1905;52.482;9.802;2024-02-28T12:48:38;39.73;;;17.57;;
3779;SDS011;1905;52.482;9.802;2024-02-28T12:51:08;42.00;;;17.43;;
3779;SDS011;1905;52.482;9.802;2024-02-28T12:53:43;37.63;;;16.20;;
3779;SDS011;1905;52.482;9.802;2024-02-28T12:56:17;33.30;;;15.60;;
3779;SDS011;1905;52.482;9.802;2024-02-28T12:58:45;32.30;;;14.80;;
3779;SDS011;1905;52.482;9.802;2024-02-28T13:01:15;41.67;;;15.07;;
3779;SDS011;1905;52.482;9.802;2024-02-28T13:03:44;30.73;;;13.93;;
3779;SDS011;1905;52.482;9.802;2024-02-28T13:06:13;29.33;;;13.80;;
3779;SDS011;1905;52.482;9.802;2024-02-28T13:08:41;34.80;;;15.87;;
3779;SDS011;1905;52.482;9.802;2024-02-28T13:11:11;37.77;;;14.40;;
3779;SDS011;1905;52.482;9.802;2024-02-28T13:13:40;30.47;;;13.10;;
3779;SDS011;1905;52.482;9.802;2024-02-28T13:16:11;31.83;;;14.43;;
3779;SDS011;1905;52.482;9.802;2024-02-28T13:18:44;32.67;;;14.57;;
3779;SDS011;1905;52.482;9.802;2024-02-28T13:21:13;28.27;;;14.73;;
3779;SDS011;1905;52.482;9.802;2024-02-28T13:23:42;28.97;;;13.70;;
3779;SDS011;1905;52.482;9.802;2024-02-28T13:26:10;33.60;;;13.77;;
3779;SDS011;1905;52.482;9.802;2024-02-28T13:28:45;44.90;;;14.17;;
3779;SDS011;1905;52.482;9.802;2024-02-28T13:31:20;29.30;;;13.50;;
3779;SDS011;1905;52.482;9.802;2024-02-28T13:33:48;33.77;;;13.20;;
3779;SDS011;1905;52.482;9.802;2024-02-28T13:36:17;26.90;;;11.50;;
3779;SDS011;1905;52.482;9.802;2024-02-28T13:38:46;31.60;;;14.80;;
3779;SDS011;1905;52.482;9.802;2024-02-28T13:41:14;28.63;;;13.63;;
3779;SDS011;1905;52.482;9.802;2024-02-28T13:43:44;30.30;;;14.33;;
3779;SDS011;1905;52.482;9.802;2024-02-28T13:46:12;33.33;;;13.73;;
3779;SDS011;1905;52.482;9.802;2024-02-28T13:48:43;37.13;;;14.80;;
3779;SDS011;1905;52.482;9.802;2024-02-28T13:51:11;30.97;;;13.47;;
3779;SDS011;1905;52.482;9.802;2024-02-28T13:53:40;30.63;;;13.47;;
3779;SDS011;1905;52.482;9.802;2024-02-28T13:56:08;33.40;;;14.90;;
3779;SDS011;1905;52.482;9.802;2024-02-28T13:58:37;34.87;;;15.67;;
3779;SDS011;1905;52.482;9.802;2024-02-28T14:01:17;37.73;;;17.20;;
3779;SDS011;1905;52.482;9.802;2024-02-28T14:03:48;33.90;;;13.90;;
3779;SDS011;1905;52.482;9.802;2024-02-28T14:06:17;32.67;;;14.37;;
3779;SDS011;1905;52.482;9.802;2024-02-28T14:08:48;30.43;;;12.80;;
3779;SDS011;1905;52.482;9.802;2024-02-28T14:11:18;35.13;;;14.30;;
3779;SDS011;1905;52.482;9.802;2024-02-28T14:13:46;35.77;;;12.77;;
3779;SDS011;1905;52.482;9.802;2024-02-28T14:16:15;29.83;;;13.23;;
3779;SDS011;1905;52.482;9.802;2024-02-28T14:18:44;33.00;;;14.20;;
3779;SDS011;1905;52.482;9.802;2024-02-28T14:21:14;31.07;;;14.10;;
3779;SDS011;1905;52.482;9.802;2024-02-28T14:23:42;31.90;;;13.13;;
3779;SDS011;1905;52.482;9.802;2024-02-28T14:26:12;27.80;;;13.60;;
3779;SDS011;1905;52.482;9.802;2024-02-28T14:28:40;30.70;;;14.63;;
3779;SDS011;1905;52.482;9.802;2024-02-28T14:31:09;27.90;;;13.87;;
3779;SDS011;1905;52.482;9.802;2024-02-28T14:33:37;37.67;;;14.37;;
3779;SDS011;1905;52.482;9.802;2024-02-28T14:36:06;28.23;;;13.17;;
3779;SDS011;1905;52.482;9.802;2024-02-28T14:38:36;34.87;;;14.07;;
3779;SDS011;1905;52.482;9.802;2024-02-28T14:41:04;33.73;;;14.50;;
3779;SDS011;1905;52.482;9.802;2024-02-28T14:43:34;43.33;;;15.90;;
3779;SDS011;1905;52.482;9.802;2024-02-28T14:46:02;29.73;;;14.37;;
3779;SDS011;1905;52.482;9.802;2024-02-28T14:48:32;33.20;;;13.63;;
3779;SDS011;1905;52.482;9.802;2024-02-28T14:51:00;36.33;;;16.37;;
3779;SDS011;1905;52.482;9.802;2024-02-28T14:53:30;26.87;;;13.90;;
3779;SDS011;1905;52.482;9.802;2024-02-28T14:55:59;29.97;;;13.73;;
3779;SDS011;1905;52.482;9.802;2024-02-28T14:58:28;33.00;;;14.40;;
3779;SDS011;1905;52.482;9.802;2024-02-28T15:00:56;29.50;;;14.33;;
3779;SDS011;1905;52.482;9.802;2024-02-28T15:03:27;39.30;;;16.30;;
3779;SDS011;1905;52.482;9.802;2024-02-28T15:05:56;34.40;;;17.80;;